Time;durP1;ratioP1;P1;durP2;ratioP2;P2;SDS_P1;SDS_P2;PMS_P1;PMS_P2;Temp;Humidity;BMP_temperature;BMP_pressure;BME280_temperature;BME280_humidity;BME280_pressure;Samples;Min_cycle;Max_cycle;Signal;HPM_P1;HPM_P2
2022/11/29 00:00:14;;;;;;;;;;;;;;;11.63;63.18;95093.88;5092595;28;20012;-65
2022/11/29 00:02:39;;;;;;;;;;;;;;;11.61;62.72;95088.84;5096934;28;20349;-65
2022/11/29 00:05:05;;;;;;;;;;;;;;;11.56;62.55;95081.00;5092033;28;20019;-64
2022/11/29 00:07:30;;;;;;;;;;;;;;;11.58;63.13;95086.03;5092372;28;20024;-65
2022/11/29 00:09:55;;;;;;;;;;;;;;;11.56;63.07;95083.66;5110748;28;20106;-65
2022/11/29 00:12:20;;;;;;;;;;;;;;;11.63;62.93;95088.56;5110663;28;20009;-64
2022/11/29 00:14:46;;;;;;;;;;;;;;;11.64;63.11;95087.47;5090800;28;20012;-65
2022/11/29 00:17:11;;;;;;;;;;;;;;;11.66;62.27;95085.25;5091590;28;20061;-65
2022/11/29 00:19:36;;;;;;;;;;;;;;;11.67;63.01;95087.63;5110546;28;20008;-64
2022/11/29 00:22:02;;;;;;;;;;;;;;;11.73;63.00;95085.59;5092172;28;20065;-65
2022/11/29 00:24:27;;;;;;;;;;;;;;;11.67;62.15;95087.63;5110619;28;20008;-64
2022/11/29 00:26:52;;;;;;;;;;;;;;;11.69;62.22;95087.31;5109761;28;20114;-65
2022/11/29 00:29:18;;;;;;;;;;;;;;;11.64;62.36;95077.59;5090963;28;20016;-65
2022/11/29 00:31:43;;;;;;;;;;;;;;;11.64;62.84;95076.81;5085432;28;20056;-65
2022/11/29 00:34:09;;;;;;;;;;;;;;;11.69;62.52;95084.66;5098438;28;20429;-65
2022/11/29 00:36:34;;;;;;;;;;;;;;;11.70;63.18;95080.88;5090952;28;20430;-65
2022/11/29 00:39:00;;;;;;;;;;;;;;;11.69;63.30;95079.31;5091968;28;20062;-65
2022/11/29 00:41:25;;;;;;;;;;;;;;;11.70;62.87;95067.56;5110345;28;20012;-65
2022/11/29 00:43:51;;;;;;;;;;;;;;;11.71;62.78;95075.22;5100588;28;20061;-65
2022/11/29 00:46:16;;;;;;;;;;;;;;;11.74;61.94;95073.06;5087824;28;20069;-65
2022/11/29 00:48:41;;;;;;;;;;;;;;;11.72;61.68;95073.38;5091543;28;20117;-65
2022/11/29 00:51:06;;;;;;;;;;;;;;;11.75;61.81;95074.63;5110150;28;20020;-65
2022/11/29 00:53:32;;;;;;;;;;;;;;;11.76;61.38;95070.84;5091843;28;20020;-65
2022/11/29 00:55:57;;;;;;;;;;;;;;;11.75;61.78;95082.59;5091595;28;20186;-65
2022/11/29 00:58:23;;;;;;;;;;;;;;;11.79;61.19;95073.69;5077987;28;20113;-66
2022/11/29 01:00:48;;;;;;;;;;;;;;;11.78;61.07;95077.44;5089760;28;20017;-65
2022/11/29 01:03:14;;;;;;;;;;;;;;;11.81;61.01;95076.81;5089892;28;20013;-65
2022/11/29 01:05:40;;;;;;;;;;;;;;;11.82;60.82;95073.06;5093091;28;20040;-64
2022/11/29 01:08:05;;;;;;;;;;;;;;;11.83;60.66;95068.56;5075207;28;20431;-65
2022/11/29 01:10:31;;;;;;;;;;;;;;;11.73;61.00;95068.81;5093679;28;20016;-66
2022/11/29 01:12:56;;;;;;;;;;;;;;;11.70;60.76;95073.66;5075185;28;20369;-65
2022/11/29 01:15:21;;;;;;;;;;;;;;;11.66;61.21;95074.59;5093183;28;20448;-64
2022/11/29 01:17:48;;;;;;;;;;;;;;;11.66;61.14;95071.94;5093705;28;20009;-65
2022/11/29 01:20:13;;;;;;;;;;;;;;;11.59;61.32;95075.06;5093429;28;20008;-65
2022/11/29 01:22:39;;;;;;;;;;;;;;;11.56;62.12;95074.91;5075321;28;20024;-65
2022/11/29 01:25:04;;;;;;;;;;;;;;;11.55;62.08;95073.34;5077305;28;20008;-65
2022/11/29 01:27:30;;;;;;;;;;;;;;;11.53;62.23;95071.00;5094959;28;20436;-65
2022/11/29 01:29:55;;;;;;;;;;;;;;;11.54;62.18;95077.09;5095184;28;20627;-65
2022/11/29 01:32:20;;;;;;;;;;;;;;;11.57;62.03;95073.81;5113674;28;20008;-64
2022/11/29 01:34:45;;;;;;;;;;;;;;;10.99;62.12;95003.81;5113523;28;20008;-66
2022/11/29 01:37:11;;;;;;;;;;;;;;;11.51;62.70;95073.16;5113220;28;20102;-65
2022/11/29 01:39:36;;;;;;;;;;;;;;;11.49;63.24;95077.25;5107094;28;20069;-65
2022/11/29 01:42:01;;;;;;;;;;;;;;;11.53;63.44;95075.53;5074519;28;20020;-65
2022/11/29 01:44:28;;;;;;;;;;;;;;;11.54;62.94;95077.09;5093140;28;20009;-65
2022/11/29 01:46:53;;;;;;;;;;;;;;;11.53;62.51;95078.19;5074189;28;20131;-66
2022/11/29 01:49:31;;;;;;;;;;;;;;;11.51;62.97;95073.16;5093002;28;20457;-65
2022/11/29 01:52:02;;;;;;;;;;;;;;;11.51;62.86;95072.38;5092875;28;20011;-65
2022/11/29 01:54:28;;;;;;;;;;;;;;;11.61;62.81;95072.09;5105368;28;20013;-65
2022/11/29 01:56:54;;;;;;;;;;;;;;;11.65;62.47;95073.03;5112241;28;20012;-65
2022/11/29 01:59:22;;;;;;;;;;;;;;;11.67;63.48;95070.88;5113155;28;20476;-65
2022/11/29 02:01:47;;;;;;;;;;;;;;;11.64;62.92;95068.81;5113163;28;20063;-66
2022/11/29 02:04:13;;;;;;;;;;;;;;;11.61;62.57;95072.09;5094712;28;20051;-65
2022/11/29 02:06:40;;;;;;;;;;;;;;;11.58;63.09;95068.19;5112670;28;20008;-64
2022/11/29 02:09:15;;;;;;;;;;;;;;;11.53;63.24;95062.22;5078861;28;20030;-64
2022/11/29 02:11:50;;;;;;;;;;;;;;;11.55;63.09;95062.69;5092582;28;20374;-65
2022/11/29 02:14:21;;;;;;;;;;;;;;;11.54;63.52;95061.91;5074291;28;20020;-65
2022/11/29 02:16:49;;;;;;;;;;;;;;;11.59;63.32;95059.09;5091411;28;20009;-66
2022/11/29 02:19:52;;;;;;;;;;;;;;;11.59;63.97;95067.06;5074293;28;20074;-65
2022/11/29 02:22:23;;;;;;;;;;;;;;;11.56;63.21;95061.56;5099808;28;20019;-65
2022/11/29 02:24:51;;;;;;;;;;;;;;;11.45;63.84;95061.88;5112524;28;20014;-65
2022/11/29 02:27:31;;;;;;;;;;;;;;;11.41;63.96;95068.94;5112517;28;20027;-65
2022/11/29 02:29:56;;;;;;;;;;;;;;;11.41;63.70;95057.47;5093339;28;20472;-65
2022/11/29 02:32:37;;;;;;;;;;;;;;;11.12;61.04;95060.72;5094128;28;20047;-65
2022/11/29 02:35:34;;;;;;;;;;;;;;;10.30;63.89;95060.19;5111996;28;20011;-66
2022/11/29 02:38:05;;;;;;;;;;;;;;;10.67;65.00;95069.59;5070537;28;20111;-64
2022/11/29 02:40:31;;;;;;;;;;;;;;;10.95;65.42;95064.09;5112321;28;20008;-66
2022/11/29 02:43:05;;;;;;;;;;;;;;;11.13;65.09;95075.59;5112354;28;20013;-66
2022/11/29 02:45:37;;;;;;;;;;;;;;;11.24;65.21;95076.09;5095930;28;20017;-65
2022/11/29 02:48:08;;;;;;;;;;;;;;;11.32;64.60;95070.00;5091520;28;20388;-65
2022/11/29 02:50:39;;;;;;;;;;;;;;;11.39;64.92;95071.13;5091416;28;20017;-65
2022/11/29 02:53:05;;;;;;;;;;;;;;;11.42;64.92;95062.50;5073346;28;20016;-64
2022/11/29 02:55:30;;;;;;;;;;;;;;;11.46;64.79;95067.97;5073104;28;20048;-64
2022/11/29 02:58:01;;;;;;;;;;;;;;;11.40;64.22;95064.69;5091669;28;20009;-65
2022/11/29 03:00:27;;;;;;;;;;;;;;;11.42;65.05;95067.06;5073470;28;20021;-65
2022/11/29 03:02:59;;;;;;;;;;;;;;;11.42;64.80;95073.16;5091499;28;20009;-64
2022/11/29 03:05:27;;;;;;;;;;;;;;;11.40;64.81;95069.22;5103570;28;20066;-65
2022/11/29 03:07:56;;;;;;;;;;;;;;;11.38;64.79;95074.88;5111701;28;20020;-65
2022/11/29 03:10:40;;;;;;;;;;;;;;;11.40;64.61;95072.69;5111635;28;20013;-64
2022/11/29 03:13:12;;;;;;;;;;;;;;;11.36;63.79;95076.25;5093690;28;20012;-64
2022/11/29 03:15:43;;;;;;;;;;;;;;;11.30;64.25;95086.28;5111434;28;20016;-65
2022/11/29 03:18:27;;;;;;;;;;;;;;;11.37;64.91;95086.63;5107523;28;20044;-65
2022/11/29 03:21:07;;;;;;;;;;;;;;;11.40;65.23;95085.22;5090965;28;20107;-64
2022/11/29 03:23:37;;;;;;;;;;;;;;;11.35;65.30;95086.13;5073085;28;20017;-65
2022/11/29 03:26:03;;;;;;;;;;;;;;;11.34;65.72;95087.22;5090704;28;20079;-64
2022/11/29 03:28:31;;;;;;;;;;;;;;;11.37;65.68;95085.84;5090104;28;20056;-64
2022/11/29 03:31:08;;;;;;;;;;;;;;;11.37;65.55;95089.28;5072862;28;20013;-64
2022/11/29 03:33:38;;;;;;;;;;;;;;;11.40;64.65;95093.97;5106613;28;20039;-64
2022/11/29 03:36:09;;;;;;;;;;;;;;;11.36;64.49;95089.59;5110975;28;20012;-64
2022/11/29 03:38:41;;;;;;;;;;;;;;;11.26;64.98;95090.69;5111213;28;20016;-64
2022/11/29 03:41:19;;;;;;;;;;;;;;;11.25;64.89;95086.41;5092044;28;20017;-64
2022/11/29 03:43:48;;;;;;;;;;;;;;;11.33;65.40;95093.66;5111103;28;20008;-64
2022/11/29 03:46:34;;;;;;;;;;;;;;;11.38;65.44;95093.50;5109148;28;20022;-64
2022/11/29 03:49:02;;;;;;;;;;;;;;;11.42;66.35;95096.34;5091392;28;20023;-65
2022/11/29 03:51:43;;;;;;;;;;;;;;;11.42;66.01;95091.81;5092809;28;20117;-65
2022/11/29 03:54:09;;;;;;;;;;;;;;;11.39;65.99;95095.09;5111115;28;20009;-64
2022/11/29 03:56:36;;;;;;;;;;;;;;;11.44;66.11;95089.59;5109780;28;20009;-64
2022/11/29 03:59:16;;;;;;;;;;;;;;;11.49;66.28;95085.25;5109327;28;20085;-64
2022/11/29 04:01:54;;;;;;;;;;;;;;;11.40;65.87;95091.31;5072500;28;20024;-64
2022/11/29 04:04:38;;;;;;;;;;;;;;;11.38;66.64;95090.84;5072455;28;20012;-65
2022/11/29 04:07:03;;;;;;;;;;;;;;;11.39;66.90;95086.31;5071441;28;20020;-65
2022/11/29 04:09:34;;;;;;;;;;;;;;;11.40;66.30;95087.88;5090411;28;20031;-64
2022/11/29 04:12:18;;;;;;;;;;;;;;;11.42;66.35;95088.38;5090493;28;20015;-66
2022/11/29 04:14:46;;;;;;;;;;;;;;;11.39;66.14;95095.09;5100264;28;20020;-65
2022/11/29 04:17:30;;;;;;;;;;;;;;;11.42;66.21;95091.81;5109419;28;20016;-65
2022/11/29 04:20:15;;;;;;;;;;;;;;;11.42;65.50;95091.81;5110521;28;20009;-65
2022/11/29 04:22:47;;;;;;;;;;;;;;;11.41;65.52;95090.25;5092368;28;20379;-65
2022/11/29 04:25:19;;;;;;;;;;;;;;;11.44;64.98;95084.28;5110029;28;20559;-65
2022/11/29 04:27:56;;;;;;;;;;;;;;;11.44;64.55;95080.84;5090990;28;20031;-65
2022/11/29 04:30:22;;;;;;;;;;;;;;;11.49;64.64;95085.25;5101827;28;20013;-65
2022/11/29 04:33:03;;;;;;;;;;;;;;;11.49;64.80;95087.91;5090115;28;20008;-65
2022/11/29 04:35:28;;;;;;;;;;;;;;;11.50;64.29;95081.47;5089634;28;20025;-64
2022/11/29 04:38:05;;;;;;;;;;;;;;;11.48;64.22;95078.34;5071888;28;20013;-66
2022/11/29 04:40:30;;;;;;;;;;;;;;;11.47;64.40;95082.91;5071815;28;20016;-66
2022/11/29 04:43:11;;;;;;;;;;;;;;;11.52;64.24;95084.63;5071464;28;20039;-65
2022/11/29 04:45:48;;;;;;;;;;;;;;;11.55;64.44;95086.66;5082026;28;20017;-65
2022/11/29 04:48:39;;;;;;;;;;;;;;;11.58;64.18;95089.50;5092005;28;20020;-65
2022/11/29 04:51:23;;;;;;;;;;;;;;;11.57;63.98;95089.81;5091757;28;20202;-65
2022/11/29 04:53:56;;;;;;;;;;;;;;;11.60;63.70;95091.84;5091857;28;20365;-64
2022/11/29 04:56:35;;;;;;;;;;;;;;;11.60;63.85;95092.63;5090603;28;20018;-65
2022/11/29 04:59:00;;;;;;;;;;;;;;;11.61;63.89;95091.50;5089591;28;20056;-65
2022/11/29 05:01:28;;;;;;;;;;;;;;;11.58;64.57;95094.81;5089663;28;20044;-65
2022/11/29 05:04:03;;;;;;;;;;;;;;;11.58;63.98;95102.03;5071452;28;20040;-65
2022/11/29 05:06:32;;;;;;;;;;;;;;;11.53;63.92;95091.53;5071203;28;20016;-65
2022/11/29 05:09:03;;;;;;;;;;;;;;;11.58;63.33;95102.03;5089558;28;20091;-65
2022/11/29 05:11:37;;;;;;;;;;;;;;;11.60;63.65;95097.16;5089192;28;20017;-65
2022/11/29 05:14:21;;;;;;;;;;;;;;;11.60;63.90;95103.28;5089612;28;20012;-64
2022/11/29 05:17:05;;;;;;;;;;;;;;;11.58;63.52;95102.03;5070846;28;20109;-65
2022/11/29 05:19:33;;;;;;;;;;;;;;;11.58;64.16;95099.38;5089467;28;20013;-65
2022/11/29 05:22:01;;;;;;;;;;;;;;;11.61;64.32;95101.38;5071373;28;20039;-65
2022/11/29 05:24:46;;;;;;;;;;;;;;;11.60;63.58;95100.59;5071455;28;20376;-65
2022/11/29 05:27:21;;;;;;;;;;;;;;;11.59;63.10;95104.38;5069653;28;20027;-65
2022/11/29 05:29:49;;;;;;;;;;;;;;;11.62;63.61;95108.31;5089599;28;20015;-65
2022/11/29 05:32:27;;;;;;;;;;;;;;;11.64;63.28;95111.44;5089407;28;20015;-63
2022/11/29 05:35:02;;;;;;;;;;;;;;;11.64;63.86;95108.78;5070904;28;20020;-65
2022/11/29 05:37:33;;;;;;;;;;;;;;;11.66;63.75;95112.69;5071293;28;20097;-67
2022/11/29 05:40:17;;;;;;;;;;;;;;;11.69;64.25;95117.41;5075168;28;20103;-65
2022/11/29 05:42:48;;;;;;;;;;;;;;;11.51;63.74;95083.81;5110136;28;20590;-65
2022/11/29 05:45:19;;;;;;;;;;;;;;;11.70;63.62;95107.53;5090757;28;20111;-64
2022/11/29 05:47:51;;;;;;;;;;;;;;;11.70;63.16;95121.63;5090835;28;20431;-64
2022/11/29 05:50:31;;;;;;;;;;;;;;;11.70;62.60;95118.19;5109774;28;20012;-64
2022/11/29 05:52:56;;;;;;;;;;;;;;;11.70;63.13;95121.63;5095096;28;20465;-64
2022/11/29 05:55:54;;;;;;;;;;;;;;;11.69;62.78;95121.94;5079051;28;20069;-64
2022/11/29 05:58:25;;;;;;;;;;;;;;;11.72;62.96;95121.34;5052152;28;20008;-64
2022/11/29 06:01:09;;;;;;;;;;;;;;;11.74;62.96;95124.47;5092292;28;20518;-65
2022/11/29 06:03:37;;;;;;;;;;;;;;;11.73;62.72;95119.47;5092567;28;20063;-65
2022/11/29 06:06:18;;;;;;;;;;;;;;;11.71;62.37;95125.84;5073778;28;20024;-65
2022/11/29 06:08:52;;;;;;;;;;;;;;;11.70;63.06;95120.84;5097924;28;20458;-64
2022/11/29 06:11:23;;;;;;;;;;;;;;;11.69;62.23;95127.28;5094729;28;20528;-65
2022/11/29 06:13:52;;;;;;;;;;;;;;;11.69;62.76;95124.63;5094659;28;20019;-64
2022/11/29 06:16:41;;;;;;;;;;;;;;;11.71;62.84;95127.75;5112623;28;20008;-65
2022/11/29 06:19:25;;;;;;;;;;;;;;;11.67;62.19;95129.47;5112614;28;20010;-64
2022/11/29 06:21:50;;;;;;;;;;;;;;;11.64;62.06;95130.09;5094228;28;20476;-65
2022/11/29 06:24:24;;;;;;;;;;;;;;;11.70;62.42;95131.50;5092251;28;20021;-64
2022/11/29 06:26:52;;;;;;;;;;;;;;;11.74;62.40;95129.00;5091303;28;20017;-65
2022/11/29 06:29:23;;;;;;;;;;;;;;;11.74;62.16;95132.47;5092096;28;20366;-65
2022/11/29 06:32:02;;;;;;;;;;;;;;;11.74;61.95;95132.47;5092171;28;20009;-64
2022/11/29 06:34:28;;;;;;;;;;;;;;;11.56;63.06;95128.19;5094988;28;20019;-65
2022/11/29 06:36:58;;;;;;;;;;;;;;;11.57;62.83;95133.22;5081738;28;20020;-64
2022/11/29 06:39:24;;;;;;;;;;;;;;;11.63;62.96;95142.63;5081113;28;20012;-64
2022/11/29 06:41:49;;;;;;;;;;;;;;;11.69;62.55;95138.72;5094940;28;20012;-63
2022/11/29 06:44:14;;;;;;;;;;;;;;;11.73;62.38;95141.56;5112069;28;20018;-63
2022/11/29 06:46:46;;;;;;;;;;;;;;;11.76;62.37;95143.59;5093520;28;20016;-63
2022/11/29 06:49:17;;;;;;;;;;;;;;;11.80;62.32;95139.19;5111881;28;20015;-65
2022/11/29 06:51:47;;;;;;;;;;;;;;;11.82;61.83;95142.34;5093723;28;20067;-64
2022/11/29 06:54:12;;;;;;;;;;;;;;;11.82;62.12;95142.34;5107229;28;20016;-66
2022/11/29 06:56:47;;;;;;;;;;;;;;;11.84;62.27;95145.50;5090684;28;20119;-64
2022/11/29 06:59:13;;;;;;;;;;;;;;;11.82;61.96;95142.34;5075679;28;20615;-67
2022/11/29 07:01:42;;;;;;;;;;;;;;;11.84;61.72;95150.84;5092874;28;20109;-66
2022/11/29 07:04:22;;;;;;;;;;;;;;;11.88;61.09;95151.03;5109782;28;20602;-67
2022/11/29 07:06:47;;;;;;;;;;;;;;;11.90;61.62;95149.59;5100351;28;20044;-66
2022/11/29 07:09:14;;;;;;;;;;;;;;;11.92;61.61;95158.06;5073224;28;20048;-66
2022/11/29 07:11:40;;;;;;;;;;;;;;;11.93;61.08;95150.88;5075502;28;20558;-67
2022/11/29 07:14:05;;;;;;;;;;;;;;;11.95;61.50;95156.66;5090919;28;20099;-65
2022/11/29 07:16:36;;;;;;;;;;;;;;;11.95;61.06;95157.44;5101488;28;20016;-66
2022/11/29 07:19:06;;;;;;;;;;;;;;;10.98;61.08;95022.78;5111301;28;20016;-65
2022/11/29 07:21:39;;;;;;;;;;;;;;;11.98;61.08;95158.72;5088870;28;20112;-66
2022/11/29 07:24:13;;;;;;;;;;;;;;;12.01;61.05;95160.75;5088501;28;20023;-67
2022/11/29 07:26:45;;;;;;;;;;;;;;;12.07;60.81;95164.03;5091209;28;20078;-65
2022/11/29 07:29:30;;;;;;;;;;;;;;;12.06;60.56;95167.81;5090249;28;20062;-67
2022/11/29 07:32:07;;;;;;;;;;;;;;;11.81;60.53;95156.75;5073115;28;20016;-67
2022/11/29 07:34:57;;;;;;;;;;;;;;;11.93;60.58;95159.66;5072538;28;20016;-66
2022/11/29 07:37:28;;;;;;;;;;;;;;;12.02;60.44;95169.53;5076726;28;20039;-69
2022/11/29 07:40:01;;;;;;;;;;;;;;;12.09;60.45;95167.19;5104187;28;20031;-66
2022/11/29 07:42:42;;;;;;;;;;;;;;;12.11;59.64;95165.00;5094232;28;20020;-66
2022/11/29 07:45:28;;;;;;;;;;;;;;;12.14;59.59;95169.72;5085609;28;20022;-65
2022/11/29 07:47:53;;;;;;;;;;;;;;;12.13;59.46;95166.25;5094983;28;20013;-65
2022/11/29 07:50:19;;;;;;;;;;;;;;;12.15;59.27;95169.38;5092806;28;20012;-66
2022/11/29 07:52:44;;;;;;;;;;;;;;;12.25;59.47;95175.53;5075169;28;20058;-67
2022/11/29 07:55:14;;;;;;;;;;;;;;;12.27;59.20;95171.44;5078934;28;20060;-65
2022/11/29 07:57:39;;;;;;;;;;;;;;;12.29;58.96;95174.59;5089931;28;20159;-65
2022/11/29 08:00:04;;;;;;;;;;;;;;;12.35;58.88;95170.66;5104019;28;20078;-65
2022/11/29 08:02:30;;;;;;;;;;;;;;;12.34;58.54;95171.75;5093499;28;20590;-64
2022/11/29 08:04:55;;;;;;;;;;;;;;;12.32;58.28;95176.59;5078125;28;20563;-65
2022/11/29 08:07:20;;;;;;;;;;;;;;;12.34;58.52;95170.97;5077620;28;20464;-65
2022/11/29 08:09:46;;;;;;;;;;;;;;;12.37;58.56;95179.13;5083817;28;20047;-66
2022/11/29 08:12:11;;;;;;;;;;;;;;;12.42;58.51;95176.28;5080165;28;20505;-66
2022/11/29 08:14:36;;;;;;;;;;;;;;;12.45;58.02;95181.00;5088130;28;20016;-65
2022/11/29 08:17:01;;;;;;;;;;;;;;;12.45;58.18;95181.00;5093330;28;20497;-67
2022/11/29 08:19:26;;;;;;;;;;;;;;;12.52;57.90;95180.53;5071612;28;20504;-65
2022/11/29 08:21:52;;;;;;;;;;;;;;;12.52;58.37;95185.09;5089940;28;20013;-66
2022/11/29 08:24:18;;;;;;;;;;;;;;;12.56;57.74;95180.69;5089295;28;20017;-65
2022/11/29 08:26:43;;;;;;;;;;;;;;;12.59;57.78;95180.88;5089353;28;20477;-65
2022/11/29 08:29:08;;;;;;;;;;;;;;;12.62;57.59;95187.44;5089515;28;20051;-65
2022/11/29 08:31:34;;;;;;;;;;;;;;;12.68;57.55;95183.50;5089985;28;20112;-64
2022/11/29 08:33:59;;;;;;;;;;;;;;;12.68;57.46;95180.84;5071824;28;20047;-65
2022/11/29 08:36:25;;;;;;;;;;;;;;;12.70;57.66;95181.31;5089517;28;20063;-65
2022/11/29 08:38:50;;;;;;;;;;;;;;;12.75;57.38;95186.50;5076724;28;20063;-65
2022/11/29 08:41:16;;;;;;;;;;;;;;;12.69;57.16;95182.41;5109487;28;20017;-64
2022/11/29 08:43:41;;;;;;;;;;;;;;;12.71;57.77;95183.66;5110663;28;20009;-64
2022/11/29 08:46:06;;;;;;;;;;;;;;;12.74;57.17;95184.91;5110107;28;20052;-65
2022/11/29 08:48:32;;;;;;;;;;;;;;;12.79;57.30;95184.75;5091865;28;20031;-64
2022/11/29 08:50:57;;;;;;;;;;;;;;;12.84;56.92;95189.91;5109915;28;20032;-65
2022/11/29 08:53:41;;;;;;;;;;;;;;;12.87;56.96;95183.16;5102311;28;20103;-65
2022/11/29 08:56:11;;;;;;;;;;;;;;;12.88;56.81;95192.75;5090276;28;20468;-66
2022/11/29 08:58:37;;;;;;;;;;;;;;;13.00;56.94;95190.22;5091810;28;20457;-64
2022/11/29 09:01:03;;;;;;;;;;;;;;;13.01;56.95;95189.13;5110140;28;20061;-64
2022/11/29 09:06:13;;;;;;;;;;;;;;;13.07;56.08;95195.84;5105968;28;20062;-65
2022/11/29 09:08:39;;;;;;;;;;;;;;;13.12;56.00;95193.00;5089862;28;20021;-64
2022/11/29 09:11:07;;;;;;;;;;;;;;;13.11;55.71;95201.34;5089546;28;20013;-65
2022/11/29 09:13:33;;;;;;;;;;;;;;;13.14;55.50;95198.03;5071611;28;20024;-64
2022/11/29 09:15:58;;;;;;;;;;;;;;;13.19;55.54;95197.84;5104168;28;20407;-65
2022/11/29 09:18:23;;;;;;;;;;;;;;;13.26;55.61;95203.53;5109681;28;20114;-65
2022/11/29 09:20:48;;;;;;;;;;;;;;;13.34;55.38;95199.25;5102628;28;20013;-65
2022/11/29 09:23:14;;;;;;;;;;;;;;;13.41;55.34;95213.72;5089402;28;20017;-64
2022/11/29 09:25:39;;;;;;;;;;;;;;;13.36;54.82;95203.19;5089929;28;20048;-65
2022/11/29 09:28:04;;;;;;;;;;;;;;;13.40;54.65;95214.78;5093057;28;20024;-65
2022/11/29 09:30:30;;;;;;;;;;;;;;;13.46;55.15;95208.19;5093313;28;20009;-64
2022/11/29 09:32:56;;;;;;;;;;;;;;;13.47;55.22;95209.75;5074720;28;20013;-66
2022/11/29 09:35:21;;;;;;;;;;;;;;;13.47;54.75;95209.75;5092416;28;20019;-65
2022/11/29 09:37:46;;;;;;;;;;;;;;;13.51;54.74;95213.38;5092870;28;20012;-65
2022/11/29 09:40:18;;;;;;;;;;;;;;;13.54;54.14;95209.25;5075086;28;20500;-65
2022/11/29 09:42:43;;;;;;;;;;;;;;;13.58;53.77;95209.41;5075138;28;20024;-65
2022/11/29 09:45:10;;;;;;;;;;;;;;;13.65;53.91;95201.66;5092500;28;20012;-65
2022/11/29 09:47:51;;;;;;;;;;;;;;;13.63;53.74;95206.56;5092626;28;20025;-65
2022/11/29 09:50:18;;;;;;;;;;;;;;;13.59;53.31;95208.28;5106388;28;20482;-65
2022/11/29 09:52:44;;;;;;;;;;;;;;;13.62;53.19;95205.78;5113405;28;20059;-65
2022/11/29 09:55:12;;;;;;;;;;;;;;;13.64;53.16;95216.13;5112968;28;20051;-65
2022/11/29 09:57:38;;;;;;;;;;;;;;;13.61;53.73;95214.09;5094892;28;20106;-64
2022/11/29 10:00:05;;;;;;;;;;;;;;;13.67;53.24;95210.94;5113119;28;20035;-64
2022/11/29 10:02:38;;;;;;;;;;;;;;;13.66;52.91;95212.03;5094940;28;20036;-67
2022/11/29 10:05:13;;;;;;;;;;;;;;;13.61;53.21;95216.75;5095439;28;20759;-64
2022/11/29 10:07:42;;;;;;;;;;;;;;;13.61;53.44;95217.53;5112927;28;20041;-64
2022/11/29 10:10:18;;;;;;;;;;;;;;;13.69;53.14;95208.72;5094847;28;20100;-64
2022/11/29 10:13:14;;;;;;;;;;;;;;;13.74;53.41;95208.53;5094699;28;20016;-64
2022/11/29 10:15:42;;;;;;;;;;;;;;;13.70;52.84;95212.16;5099361;28;20020;-64
2022/11/29 10:18:15;;;;;;;;;;;;;;;13.66;52.87;95213.91;5102197;28;20038;-64
2022/11/29 10:20:42;;;;;;;;;;;;;;;13.65;53.11;95210.47;5074478;28;20013;-64
2022/11/29 10:23:07;;;;;;;;;;;;;;;13.71;53.31;95213.72;5074040;28;20012;-65
2022/11/29 10:25:52;;;;;;;;;;;;;;;13.66;53.27;95211.25;5093529;28;20424;-65
2022/11/29 10:28:19;;;;;;;;;;;;;;;13.52;53.57;95216.81;5112468;28;20726;-64
2022/11/29 10:30:45;;;;;;;;;;;;;;;13.44;53.21;95212.28;5112472;28;20008;-65
2022/11/29 10:33:31;;;;;;;;;;;;;;;13.35;53.11;95208.84;5093360;28;20012;-65
2022/11/29 10:35:57;;;;;;;;;;;;;;;13.40;54.28;95204.09;5111281;28;20507;-65
2022/11/29 10:38:23;;;;;;;;;;;;;;;13.43;53.77;95203.47;5112202;28;20009;-65
2022/11/29 10:40:50;;;;;;;;;;;;;;;13.47;53.67;95204.41;5093989;28;20020;-65
2022/11/29 10:43:15;;;;;;;;;;;;;;;13.55;53.90;95199.34;5112197;28;20016;-65
2022/11/29 10:45:44;;;;;;;;;;;;;;;13.48;53.48;95200.63;5110801;28;20019;-64
2022/11/29 10:48:17;;;;;;;;;;;;;;;13.49;53.15;95204.09;5093753;28;20493;-65
2022/11/29 10:50:43;;;;;;;;;;;;;;;13.13;53.02;95133.16;5112335;28;20008;-65
2022/11/29 10:53:11;;;;;;;;;;;;;;;13.67;53.52;95202.91;5112022;28;20008;-65
2022/11/29 10:55:55;;;;;;;;;;;;;;;13.76;53.23;95197.50;5093276;28;20016;-65
2022/11/29 10:58:24;;;;;;;;;;;;;;;13.87;53.45;95201.41;5111959;28;20008;-65
2022/11/29 11:00:51;;;;;;;;;;;;;;;13.89;53.38;95204.53;5097590;28;20020;-65
2022/11/29 11:03:24;;;;;;;;;;;;;;;13.75;53.07;95198.63;5091587;28;20009;-64
2022/11/29 11:06:15;;;;;;;;;;;;;;;13.68;54.05;95199.13;5091085;28;20078;-64
2022/11/29 11:08:42;;;;;;;;;;;;;;;13.67;53.35;95200.25;5070682;28;20025;-64
2022/11/29 11:11:08;;;;;;;;;;;;;;;13.78;53.98;95203.34;5072934;28;20039;-64
2022/11/29 11:13:34;;;;;;;;;;;;;;;13.77;53.49;95204.44;5090855;28;20017;-64
2022/11/29 11:16:19;;;;;;;;;;;;;;;13.77;52.86;95201.78;5072563;28;20090;-63
2022/11/29 11:18:45;;;;;;;;;;;;;;;13.83;53.20;95203.16;5091116;28;20489;-64
2022/11/29 11:21:12;;;;;;;;;;;;;;;13.95;52.72;95208.59;5091187;28;20013;-64
2022/11/29 11:23:52;;;;;;;;;;;;;;;14.05;52.63;95208.22;5091052;28;20100;-64
2022/11/29 11:26:18;;;;;;;;;;;;;;;14.11;51.95;95203.47;5090224;28;20020;-64
2022/11/29 11:28:55;;;;;;;;;;;;;;;14.10;51.69;95203.78;5091016;28;20027;-64
2022/11/29 11:31:34;;;;;;;;;;;;;;;14.25;51.79;95203.22;5073117;28;20012;-64
2022/11/29 11:34:24;;;;;;;;;;;;;;;14.23;51.80;95208.13;5073581;28;20009;-64
2022/11/29 11:36:49;;;;;;;;;;;;;;;14.25;51.09;95209.34;5072413;28;20107;-64
2022/11/29 11:39:18;;;;;;;;;;;;;;;14.30;50.96;95213.72;5091074;28;20575;-64
2022/11/29 11:44:38;;;;;;;;;;;;;;;14.26;51.12;95210.13;5090859;28;20016;-64
2022/11/29 11:47:12;;;;;;;;;;;;;;;14.30;51.38;95214.50;5097935;28;20114;-65
2022/11/29 11:49:56;;;;;;;;;;;;;;;13.85;51.36;95149.34;5110334;28;20008;-65
2022/11/29 11:52:26;;;;;;;;;;;;;;;13.94;51.59;95216.94;5110965;28;20005;-65
2022/11/29 11:54:56;;;;;;;;;;;;;;;14.04;52.78;95208.53;5091223;28;20411;-66
2022/11/29 11:57:22;;;;;;;;;;;;;;;13.99;52.62;95214.88;5092619;28;20009;-65
2022/11/29 11:59:49;;;;;;;;;;;;;;;13.94;53.07;95217.72;5110868;28;20049;-65
2022/11/29 12:02:33;;;;;;;;;;;;;;;13.97;53.29;95214.41;5092533;28;20015;-65
2022/11/29 12:05:00;;;;;;;;;;;;;;;13.90;54.24;95221.34;5092065;28;20013;-64
2022/11/29 12:07:34;;;;;;;;;;;;;;;13.85;53.31;95216.97;5079391;28;20021;-64
2022/11/29 12:10:04;;;;;;;;;;;;;;;13.73;53.18;95214.22;5072310;28;20012;-64
2022/11/29 12:12:36;;;;;;;;;;;;;;;13.67;53.04;95216.28;5072114;28;20009;-64
2022/11/29 12:15:06;;;;;;;;;;;;;;;13.72;53.95;95212.66;5076728;28;20344;-65
2022/11/29 12:17:46;;;;;;;;;;;;;;;13.75;54.57;95220.00;5109338;28;20146;-64
2022/11/29 12:20:27;;;;;;;;;;;;;;;13.72;54.10;95213.44;5108866;28;20016;-64
2022/11/29 12:22:52;;;;;;;;;;;;;;;13.85;54.75;95219.66;5120141;22;20021;-66
2022/11/29 12:25:20;;;;;;;;;;;;;;;13.90;53.95;95219.47;5089840;28;20264;-65
2022/11/29 12:27:47;;;;;;;;;;;;;;;14.02;54.04;95219.56;5088805;28;20031;-66
2022/11/29 12:30:13;;;;;;;;;;;;;;;14.07;53.47;95221.25;5072083;28;20062;-65
2022/11/29 12:32:38;;;;;;;;;;;;;;;14.10;53.07;95215.28;5089703;28;20056;-65
2022/11/29 12:35:16;;;;;;;;;;;;;;;14.12;52.88;95223.75;5070899;28;20017;-65
2022/11/29 12:37:45;;;;;;;;;;;;;;;14.17;52.92;95220.09;5090221;28;20008;-66
2022/11/29 12:40:21;;;;;;;;;;;;;;;14.15;52.95;95219.66;5072191;28;20021;-66
2022/11/29 12:43:02;;;;;;;;;;;;;;;14.34;52.76;95222.69;5089883;28;20009;-65
2022/11/29 12:45:33;;;;;;;;;;;;;;;14.42;52.21;95226.38;5089567;28;20556;-66
2022/11/29 12:48:08;;;;;;;;;;;;;;;14.49;51.69;95227.47;5088454;28;20020;-66
2022/11/29 12:50:47;;;;;;;;;;;;;;;14.32;51.68;95231.00;5090032;28;20510;-65
2022/11/29 12:53:31;;;;;;;;;;;;;;;14.38;52.44;95230.81;5089843;28;20009;-65
2022/11/29 12:56:05;;;;;;;;;;;;;;;14.38;51.29;95226.25;5089258;28;20048;-66
2022/11/29 12:58:43;;;;;;;;;;;;;;;14.27;50.73;95230.41;5089028;28;20008;-65
2022/11/29 13:01:23;;;;;;;;;;;;;;;14.11;50.89;95229.44;5092769;28;20110;-66
2022/11/29 13:04:02;;;;;;;;;;;;;;;13.99;52.51;95238.94;5075568;28;20414;-66
2022/11/29 13:06:37;;;;;;;;;;;;;;;13.66;51.45;95237.97;5093538;28;20008;-66
2022/11/29 13:09:14;;;;;;;;;;;;;;;13.56;52.07;95241.00;5074758;28;20020;-66
2022/11/29 13:11:43;;;;;;;;;;;;;;;13.63;52.71;95234.06;5075616;28;20076;-66